sensor_id;sensor_type;location;lat;lon;timestamp;P1;durP1;ratioP1;P2;durP2;ratioP2
16193;SDS011;8204;53.582;10.080;2023-04-15T00:00:06;6.13;;;5.63;;
16193;SDS011;8204;53.582;10.080;2023-04-15T00:02:37;6.97;;;6.37;;
16193;SDS011;8204;53.582;10.080;2023-04-15T00:05:06;6.57;;;5.63;;
16193;SDS011;8204;53.582;10.080;2023-04-15T00:07:39;5.10;;;4.70;;
16193;SDS011;8204;53.582;10.080;2023-04-15T00:10:07;5.67;;;5.07;;
16193;SDS011;8204;53.582;10.080;2023-04-15T00:12:37;5.13;;;4.73;;
16193;SDS011;8204;53.582;10.080;2023-04-15T00:15:07;6.07;;;5.57;;
16193;SDS011;8204;53.582;10.080;2023-04-15T00:17:42;5.70;;;5.20;;
16193;SDS011;8204;53.582;10.080;2023-04-15T00:20:11;5.27;;;4.87;;
16193;SDS011;8204;53.582;10.080;2023-04-15T00:22:42;5.23;;;4.83;;
16193;SDS011;8204;53.582;10.080;2023-04-15T00:25:12;5.30;;;4.80;;
16193;SDS011;8204;53.582;10.080;2023-04-15T00:27:41;6.47;;;5.97;;
16193;SDS011;8204;53.582;10.080;2023-04-15T00:30:10;6.20;;;5.60;;
16193;SDS011;8204;53.582;10.080;2023-04-15T00:32:39;5.83;;;5.43;;
16193;SDS011;8204;53.582;10.080;2023-04-15T00:35:08;6.23;;;5.73;;
16193;SDS011;8204;53.582;10.080;2023-04-15T00:37:37;5.80;;;5.30;;
16193;SDS011;8204;53.582;10.080;2023-04-15T00:40:09;5.77;;;5.37;;
16193;SDS011;8204;53.582;10.080;2023-04-15T00:42:41;6.20;;;5.70;;
16193;SDS011;8204;53.582;10.080;2023-04-15T00:45:10;6.80;;;6.23;;
16193;SDS011;8204;53.582;10.080;2023-04-15T00:47:40;6.63;;;6.10;;
16193;SDS011;8204;53.582;10.080;2023-04-15T00:50:11;6.97;;;6.37;;
16193;SDS011;8204;53.582;10.080;2023-04-15T00:52:43;6.60;;;6.03;;
16193;SDS011;8204;53.582;10.080;2023-04-15T00:55:14;7.40;;;6.80;;
16193;SDS011;8204;53.582;10.080;2023-04-15T00:57:43;6.67;;;6.17;;
16193;SDS011;8204;53.582;10.080;2023-04-15T01:00:13;6.83;;;6.33;;
16193;SDS011;8204;53.582;10.080;2023-04-15T01:02:42;6.20;;;5.73;;
16193;SDS011;8204;53.582;10.080;2023-04-15T01:05:12;6.97;;;6.47;;
16193;SDS011;8204;53.582;10.080;2023-04-15T01:07:42;7.17;;;6.57;;
16193;SDS011;8204;53.582;10.080;2023-04-15T01:10:11;7.43;;;6.83;;
16193;SDS011;8204;53.582;10.080;2023-04-15T01:12:43;6.77;;;6.27;;
16193;SDS011;8204;53.582;10.080;2023-04-15T01:15:13;7.03;;;6.47;;
16193;SDS011;8204;53.582;10.080;2023-04-15T01:17:42;7.43;;;6.83;;
16193;SDS011;8204;53.582;10.080;2023-04-15T01:20:11;7.90;;;7.10;;
16193;SDS011;8204;53.582;10.080;2023-04-15T01:22:41;8.13;;;7.40;;
16193;SDS011;8204;53.582;10.080;2023-04-15T01:25:12;6.97;;;6.47;;
16193;SDS011;8204;53.582;10.080;2023-04-15T01:27:47;7.27;;;6.77;;
16193;SDS011;8204;53.582;10.080;2023-04-15T01:30:16;7.70;;;6.90;;
16193;SDS011;8204;53.582;10.080;2023-04-15T01:32:45;7.73;;;7.03;;
16193;SDS011;8204;53.582;10.080;2023-04-15T01:35:14;7.50;;;6.90;;
16193;SDS011;8204;53.582;10.080;2023-04-15T01:37:43;7.40;;;6.80;;
16193;SDS011;8204;53.582;10.080;2023-04-15T01:40:13;7.13;;;6.53;;
16193;SDS011;8204;53.582;10.080;2023-04-15T01:42:42;6.17;;;5.67;;
16193;SDS011;8204;53.582;10.080;2023-04-15T01:45:13;8.60;;;7.80;;
16193;SDS011;8204;53.582;10.080;2023-04-15T01:47:42;7.77;;;7.10;;
16193;SDS011;8204;53.582;10.080;2023-04-15T01:50:12;8.40;;;7.63;;
16193;SDS011;8204;53.582;10.080;2023-04-15T01:52:41;7.27;;;6.77;;
16193;SDS011;8204;53.582;10.080;2023-04-15T01:55:10;7.50;;;6.97;;
16193;SDS011;8204;53.582;10.080;2023-04-15T01:57:39;7.57;;;6.97;;
16193;SDS011;8204;53.582;10.080;2023-04-15T02:00:08;7.80;;;7.20;;
16193;SDS011;8204;53.582;10.080;2023-04-15T02:02:41;7.43;;;6.90;;
16193;SDS011;8204;53.582;10.080;2023-04-15T02:05:09;8.53;;;7.93;;
16193;SDS011;8204;53.582;10.080;2023-04-15T02:07:38;8.07;;;7.27;;
16193;SDS011;8204;53.582;10.080;2023-04-15T02:10:08;8.57;;;7.93;;
16193;SDS011;8204;53.582;10.080;2023-04-15T02:12:39;9.37;;;8.50;;
16193;SDS011;8204;53.582;10.080;2023-04-15T02:15:08;9.07;;;8.30;;
16193;SDS011;8204;53.582;10.080;2023-04-15T02:17:41;9.77;;;8.87;;
16193;SDS011;8204;53.582;10.080;2023-04-15T02:20:17;8.27;;;7.57;;
16193;SDS011;8204;53.582;10.080;2023-04-15T02:22:47;9.60;;;8.77;;
16193;SDS011;8204;53.582;10.080;2023-04-15T02:25:17;10.00;;;9.10;;
16193;SDS011;8204;53.582;10.080;2023-04-15T02:27:46;9.83;;;8.93;;
16193;SDS011;8204;53.582;10.080;2023-04-15T02:30:15;9.20;;;8.37;;
16193;SDS011;8204;53.582;10.080;2023-04-15T02:32:46;9.27;;;8.47;;
16193;SDS011;8204;53.582;10.080;2023-04-15T02:35:16;8.60;;;7.90;;
16193;SDS011;8204;53.582;10.080;2023-04-15T02:37:45;10.40;;;9.37;;
16193;SDS011;8204;53.582;10.080;2023-04-15T02:40:13;11.43;;;10.33;;
16193;SDS011;8204;53.582;10.080;2023-04-15T02:42:44;9.93;;;8.97;;
16193;SDS011;8204;53.582;10.080;2023-04-15T02:45:13;10.57;;;9.60;;
16193;SDS011;8204;53.582;10.080;2023-04-15T02:47:43;10.87;;;9.90;;
16193;SDS011;8204;53.582;10.080;2023-04-15T02:50:15;11.33;;;10.33;;
16193;SDS011;8204;53.582;10.080;2023-04-15T02:52:44;9.53;;;8.67;;
16193;SDS011;8204;53.582;10.080;2023-04-15T02:55:12;11.47;;;10.13;;
16193;SDS011;8204;53.582;10.080;2023-04-15T02:57:43;12.77;;;11.53;;
16193;SDS011;8204;53.582;10.080;2023-04-15T03:00:12;12.50;;;11.20;;
16193;SDS011;8204;53.582;10.080;2023-04-15T03:02:41;11.83;;;10.63;;
16193;SDS011;8204;53.582;10.080;2023-04-15T03:05:14;13.67;;;12.33;;
16193;SDS011;8204;53.582;10.080;2023-04-15T03:07:42;13.90;;;12.50;;
16193;SDS011;8204;53.582;10.080;2023-04-15T03:10:11;13.60;;;12.40;;
16193;SDS011;8204;53.582;10.080;2023-04-15T03:12:40;13.63;;;12.37;;
16193;SDS011;8204;53.582;10.080;2023-04-15T03:15:09;13.20;;;11.87;;
16193;SDS011;8204;53.582;10.080;2023-04-15T03:17:38;12.67;;;11.50;;
16193;SDS011;8204;53.582;10.080;2023-04-15T03:20:07;14.33;;;13.03;;
16193;SDS011;8204;53.582;10.080;2023-04-15T03:22:39;16.17;;;14.57;;
16193;SDS011;8204;53.582;10.080;2023-04-15T03:25:08;15.70;;;14.23;;
16193;SDS011;8204;53.582;10.080;2023-04-15T03:27:37;15.27;;;13.67;;
16193;SDS011;8204;53.582;10.080;2023-04-15T03:30:07;16.90;;;15.10;;
16193;SDS011;8204;53.582;10.080;2023-04-15T03:32:37;16.17;;;14.47;;
16193;SDS011;8204;53.582;10.080;2023-04-15T03:35:06;17.67;;;15.30;;
16193;SDS011;8204;53.582;10.080;2023-04-15T03:37:39;17.53;;;15.73;;
16193;SDS011;8204;53.582;10.080;2023-04-15T03:40:08;16.33;;;14.73;;
16193;SDS011;8204;53.582;10.080;2023-04-15T03:42:38;17.10;;;15.30;;
16193;SDS011;8204;53.582;10.080;2023-04-15T03:45:07;17.27;;;15.43;;
16193;SDS011;8204;53.582;10.080;2023-04-15T03:47:37;16.70;;;15.00;;
16193;SDS011;8204;53.582;10.080;2023-04-15T03:50:06;15.97;;;14.37;;
16193;SDS011;8204;53.582;10.080;2023-04-15T03:52:39;16.77;;;14.77;;
16193;SDS011;8204;53.582;10.080;2023-04-15T03:55:09;16.10;;;14.47;;
16193;SDS011;8204;53.582;10.080;2023-04-15T03:57:37;17.57;;;15.73;;
16193;SDS011;8204;53.582;10.080;2023-04-15T04:00:07;16.83;;;14.90;;
16193;SDS011;8204;53.582;10.080;2023-04-15T04:02:38;16.93;;;14.83;;
16193;SDS011;8204;53.582;10.080;2023-04-15T04:05:07;16.77;;;15.07;;
16193;SDS011;8204;53.582;10.080;2023-04-15T04:07:36;15.70;;;14.10;;
16193;SDS011;8204;53.582;10.080;2023-04-15T04:10:08;16.30;;;14.70;;
16193;SDS011;8204;53.582;10.080;2023-04-15T04:12:37;18.43;;;16.33;;
16193;SDS011;8204;53.582;10.080;2023-04-15T04:15:07;18.40;;;16.50;;
16193;SDS011;8204;53.582;10.080;2023-04-15T04:17:36;18.80;;;15.97;;
16193;SDS011;8204;53.582;10.080;2023-04-15T04:20:06;19.17;;;17.17;;
16193;SDS011;8204;53.582;10.080;2023-04-15T04:22:36;20.70;;;18.63;;
16193;SDS011;8204;53.582;10.080;2023-04-15T04:25:09;18.83;;;16.93;;
16193;SDS011;8204;53.582;10.080;2023-04-15T04:27:38;19.50;;;17.47;;
16193;SDS011;8204;53.582;10.080;2023-04-15T04:30:07;21.97;;;18.17;;
16193;SDS011;8204;53.582;10.080;2023-04-15T04:32:36;24.63;;;18.87;;
16193;SDS011;8204;53.582;10.080;2023-04-15T04:35:05;22.73;;;20.30;;
16193;SDS011;8204;53.582;10.080;2023-04-15T04:37:36;24.60;;;20.47;;
16193;SDS011;8204;53.582;10.080;2023-04-15T04:40:05;23.53;;;21.07;;
16193;SDS011;8204;53.582;10.080;2023-04-15T04:42:38;23.83;;;21.37;;
16193;SDS011;8204;53.582;10.080;2023-04-15T04:45:07;25.83;;;22.33;;
16193;SDS011;8204;53.582;10.080;2023-04-15T04:47:36;26.40;;;22.63;;
16193;SDS011;8204;53.582;10.080;2023-04-15T04:50:06;26.40;;;23.47;;
16193;SDS011;8204;53.582;10.080;2023-04-15T04:52:37;28.87;;;25.07;;
16193;SDS011;8204;53.582;10.080;2023-04-15T04:55:10;28.33;;;25.23;;
16193;SDS011;8204;53.582;10.080;2023-04-15T04:57:39;24.43;;;22.13;;
16193;SDS011;8204;53.582;10.080;2023-04-15T05:00:08;28.57;;;24.93;;
16193;SDS011;8204;53.582;10.080;2023-04-15T05:02:39;28.07;;;24.50;;
16193;SDS011;8204;53.582;10.080;2023-04-15T05:05:09;29.83;;;25.13;;
16193;SDS011;8204;53.582;10.080;2023-04-15T05:07:39;28.43;;;25.43;;
16193;SDS011;8204;53.582;10.080;2023-04-15T05:10:11;29.70;;;26.60;;
16193;SDS011;8204;53.582;10.080;2023-04-15T05:12:40;30.80;;;27.63;;
16193;SDS011;8204;53.582;10.080;2023-04-15T05:15:10;32.63;;;27.37;;
16193;SDS011;8204;53.582;10.080;2023-04-15T05:17:39;28.50;;;25.47;;
16193;SDS011;8204;53.582;10.080;2023-04-15T05:20:08;29.23;;;26.13;;
16193;SDS011;8204;53.582;10.080;2023-04-15T05:22:38;28.53;;;25.63;;
16193;SDS011;8204;53.582;10.080;2023-04-15T05:25:07;31.10;;;27.83;;
16193;SDS011;8204;53.582;10.080;2023-04-15T05:27:39;30.40;;;27.20;;
16193;SDS011;8204;53.582;10.080;2023-04-15T05:30:09;28.27;;;25.40;;
16193;SDS011;8204;53.582;10.080;2023-04-15T05:32:39;29.33;;;26.27;;
16193;SDS011;8204;53.582;10.080;2023-04-15T05:35:08;32.63;;;29.40;;
16193;SDS011;8204;53.582;10.080;2023-04-15T05:37:37;30.23;;;27.10;;
16193;SDS011;8204;53.582;10.080;2023-04-15T05:40:07;31.93;;;28.57;;
16193;SDS011;8204;53.582;10.080;2023-04-15T05:42:36;31.50;;;28.20;;
16193;SDS011;8204;53.582;10.080;2023-04-15T05:45:08;31.33;;;28.00;;
16193;SDS011;8204;53.582;10.080;2023-04-15T05:47:38;34.07;;;30.43;;
16193;SDS011;8204;53.582;10.080;2023-04-15T05:50:07;31.77;;;28.33;;
16193;SDS011;8204;53.582;10.080;2023-04-15T05:52:37;33.70;;;30.03;;
16193;SDS011;8204;53.582;10.080;2023-04-15T05:55:07;32.80;;;29.30;;
16193;SDS011;8204;53.582;10.080;2023-04-15T05:57:40;32.57;;;29.07;;
16193;SDS011;8204;53.582;10.080;2023-04-15T06:00:09;32.50;;;29.00;;
16193;SDS011;8204;53.582;10.080;2023-04-15T06:02:39;32.50;;;29.30;;
16193;SDS011;8204;53.582;10.080;2023-04-15T06:05:09;33.03;;;29.50;;
16193;SDS011;8204;53.582;10.080;2023-04-15T06:07:38;32.20;;;28.87;;
16193;SDS011;8204;53.582;10.080;2023-04-15T06:10:09;33.20;;;29.57;;
16193;SDS011;8204;53.582;10.080;2023-04-15T06:12:40;37.13;;;31.83;;
16193;SDS011;8204;53.582;10.080;2023-04-15T06:15:10;35.00;;;30.43;;
16193;SDS011;8204;53.582;10.080;2023-04-15T06:17:39;39.23;;;32.27;;
16193;SDS011;8204;53.582;10.080;2023-04-15T06:20:09;33.90;;;30.10;;
16193;SDS011;8204;53.582;10.080;2023-04-15T06:22:39;36.37;;;32.43;;
16193;SDS011;8204;53.582;10.080;2023-04-15T06:25:11;37.43;;;33.33;;
16193;SDS011;8204;53.582;10.080;2023-04-15T06:27:42;36.03;;;32.07;;
16193;SDS011;8204;53.582;10.080;2023-04-15T06:30:12;36.37;;;32.40;;
16193;SDS011;8204;53.582;10.080;2023-04-15T06:32:41;37.93;;;33.93;;
16193;SDS011;8204;53.582;10.080;2023-04-15T06:35:10;35.73;;;31.90;;
16193;SDS011;8204;53.582;10.080;2023-04-15T06:37:39;36.60;;;33.00;;
16193;SDS011;8204;53.582;10.080;2023-04-15T06:40:08;38.17;;;34.20;;
16193;SDS011;8204;53.582;10.080;2023-04-15T06:42:38;36.77;;;32.83;;
16193;SDS011;8204;53.582;10.080;2023-04-15T06:45:10;35.10;;;31.47;;
16193;SDS011;8204;53.582;10.080;2023-04-15T06:47:39;37.47;;;32.47;;
16193;SDS011;8204;53.582;10.080;2023-04-15T06:50:08;34.37;;;29.80;;
16193;SDS011;8204;53.582;10.080;2023-04-15T06:52:38;34.23;;;30.13;;
16193;SDS011;8204;53.582;10.080;2023-04-15T06:55:08;37.27;;;33.30;;
16193;SDS011;8204;53.582;10.080;2023-04-15T06:57:37;38.63;;;34.40;;
16193;SDS011;8204;53.582;10.080;2023-04-15T07:00:07;38.03;;;33.83;;
16193;SDS011;8204;53.582;10.080;2023-04-15T07:02:40;38.93;;;34.83;;
16193;SDS011;8204;53.582;10.080;2023-04-15T07:05:10;38.53;;;34.43;;
16193;SDS011;8204;53.582;10.080;2023-04-15T07:07:39;38.90;;;34.47;;
16193;SDS011;8204;53.582;10.080;2023-04-15T07:10:08;35.63;;;31.83;;
16193;SDS011;8204;53.582;10.080;2023-04-15T07:12:38;38.63;;;34.47;;
16193;SDS011;8204;53.582;10.080;2023-04-15T07:15:10;40.40;;;35.63;;
16193;SDS011;8204;53.582;10.080;2023-04-15T07:17:40;39.37;;;35.27;;
16193;SDS011;8204;53.582;10.080;2023-04-15T07:20:10;38.03;;;33.70;;
16193;SDS011;8204;53.582;10.080;2023-04-15T07:22:40;36.80;;;32.97;;
16193;SDS011;8204;53.582;10.080;2023-04-15T07:25:09;38.70;;;34.70;;
16193;SDS011;8204;53.582;10.080;2023-04-15T07:27:38;41.30;;;35.13;;
16193;SDS011;8204;53.582;10.080;2023-04-15T07:30:10;39.37;;;35.07;;
16193;SDS011;8204;53.582;10.080;2023-04-15T07:32:39;41.47;;;36.90;;
16193;SDS011;8204;53.582;10.080;2023-04-15T07:35:09;38.33;;;34.37;;
16193;SDS011;8204;53.582;10.080;2023-04-15T07:37:39;40.93;;;36.47;;
16193;SDS011;8204;53.582;10.080;2023-04-15T07:40:09;42.57;;;37.47;;
16193;SDS011;8204;53.582;10.080;2023-04-15T07:42:40;40.37;;;36.13;;
16193;SDS011;8204;53.582;10.080;2023-04-15T07:45:11;39.60;;;35.33;;
16193;SDS011;8204;53.582;10.080;2023-04-15T07:47:41;41.20;;;36.87;;
16193;SDS011;8204;53.582;10.080;2023-04-15T07:50:10;40.63;;;36.53;;
16193;SDS011;8204;53.582;10.080;2023-04-15T07:52:40;41.33;;;36.93;;
16193;SDS011;8204;53.582;10.080;2023-04-15T07:55:09;39.20;;;35.00;;
16193;SDS011;8204;53.582;10.080;2023-04-15T07:57:38;39.80;;;35.70;;
16193;SDS011;8204;53.582;10.080;2023-04-15T08:00:07;41.47;;;36.83;;
16193;SDS011;8204;53.582;10.080;2023-04-15T08:02:40;41.67;;;37.27;;
16193;SDS011;8204;53.582;10.080;2023-04-15T08:05:09;43.13;;;38.47;;
16193;SDS011;8204;53.582;10.080;2023-04-15T08:07:40;44.03;;;39.53;;
16193;SDS011;8204;53.582;10.080;2023-04-15T08:10:09;43.40;;;37.57;;
16193;SDS011;8204;53.582;10.080;2023-04-15T08:12:39;43.93;;;39.27;;
16193;SDS011;8204;53.582;10.080;2023-04-15T08:15:08;43.70;;;38.97;;
16193;SDS011;8204;53.582;10.080;2023-04-15T08:17:41;43.33;;;38.57;;
16193;SDS011;8204;53.582;10.080;2023-04-15T08:20:10;42.97;;;38.37;;
16193;SDS011;8204;53.582;10.080;2023-04-15T08:22:40;41.60;;;37.37;;
16193;SDS011;8204;53.582;10.080;2023-04-15T08:25:09;49.90;;;39.40;;
16193;SDS011;8204;53.582;10.080;2023-04-15T08:27:38;45.77;;;40.77;;
16193;SDS011;8204;53.582;10.080;2023-04-15T08:30:08;43.77;;;39.07;;
16193;SDS011;8204;53.582;10.080;2023-04-15T08:32:38;42.57;;;38.03;;
16193;SDS011;8204;53.582;10.080;2023-04-15T08:35:09;42.70;;;38.07;;
16193;SDS011;8204;53.582;10.080;2023-04-15T08:37:38;49.87;;;39.43;;
16193;SDS011;8204;53.582;10.080;2023-04-15T08:40:08;42.07;;;37.93;;
16193;SDS011;8204;53.582;10.080;2023-04-15T08:42:40;44.57;;;39.43;;
16193;SDS011;8204;53.582;10.080;2023-04-15T08:45:11;42.40;;;37.87;;
16193;SDS011;8204;53.582;10.080;2023-04-15T08:47:44;42.77;;;38.30;;
16193;SDS011;8204;53.582;10.080;2023-04-15T08:50:15;45.50;;;40.40;;
16193;SDS011;8204;53.582;10.080;2023-04-15T08:52:45;42.17;;;37.93;;
16193;SDS011;8204;53.582;10.080;2023-04-15T08:55:14;45.97;;;38.70;;
16193;SDS011;8204;53.582;10.080;2023-04-15T08:57:44;45.80;;;40.50;;
16193;SDS011;8204;53.582;10.080;2023-04-15T09:00:13;43.77;;;39.40;;
16193;SDS011;8204;53.582;10.080;2023-04-15T09:02:45;52.03;;;43.57;;
16193;SDS011;8204;53.582;10.080;2023-04-15T09:05:15;46.27;;;39.43;;
16193;SDS011;8204;53.582;10.080;2023-04-15T09:07:46;48.07;;;41.83;;
16193;SDS011;8204;53.582;10.080;2023-04-15T09:10:14;48.23;;;40.30;;
16193;SDS011;8204;53.582;10.080;2023-04-15T09:12:43;45.03;;;40.37;;
16193;SDS011;8204;53.582;10.080;2023-04-15T09:15:12;48.60;;;41.83;;
16193;SDS011;8204;53.582;10.080;2023-04-15T09:17:42;48.40;;;42.23;;
16193;SDS011;8204;53.582;10.080;2023-04-15T09:20:14;47.33;;;42.30;;
16193;SDS011;8204;53.582;10.080;2023-04-15T09:22:45;44.43;;;39.70;;
16193;SDS011;8204;53.582;10.080;2023-04-15T09:25:24;44.67;;;40.20;;
16193;SDS011;8204;53.582;10.080;2023-04-15T09:27:55;43.50;;;38.83;;
16193;SDS011;8204;53.582;10.080;2023-04-15T09:30:26;43.60;;;39.00;;
16193;SDS011;8204;53.582;10.080;2023-04-15T09:32:56;44.83;;;40.03;;
16193;SDS011;8204;53.582;10.080;2023-04-15T09:35:29;43.97;;;39.23;;
16193;SDS011;8204;53.582;10.080;2023-04-15T09:38:01;45.13;;;37.83;;
16193;SDS011;8204;53.582;10.080;2023-04-15T09:40:33;44.20;;;39.37;;
16193;SDS011;8204;53.582;10.080;2023-04-15T09:43:03;42.00;;;37.53;;
16193;SDS011;8204;53.582;10.080;2023-04-15T09:45:34;41.80;;;36.27;;
16193;SDS011;8204;53.582;10.080;2023-04-15T09:48:14;40.10;;;35.97;;
16193;SDS011;8204;53.582;10.080;2023-04-15T09:50:49;41.43;;;37.07;;
16193;SDS011;8204;53.582;10.080;2023-04-15T09:53:20;38.87;;;34.47;;
16193;SDS011;8204;53.582;10.080;2023-04-15T09:55:49;41.03;;;35.67;;
16193;SDS011;8204;53.582;10.080;2023-04-15T09:58:19;40.07;;;35.93;;
16193;SDS011;8204;53.582;10.080;2023-04-15T10:00:49;35.97;;;32.63;;
16193;SDS011;8204;53.582;10.080;2023-04-15T10:03:20;36.83;;;33.23;;
16193;SDS011;8204;53.582;10.080;2023-04-15T10:05:53;33.17;;;29.77;;
16193;SDS011;8204;53.582;10.080;2023-04-15T10:08:25;33.27;;;29.70;;
16193;SDS011;8204;53.582;10.080;2023-04-15T10:10:55;29.83;;;26.90;;
16193;SDS011;8204;53.582;10.080;2023-04-15T10:13:26;32.47;;;29.30;;
16193;SDS011;8204;53.582;10.080;2023-04-15T10:15:59;33.57;;;30.23;;
16193;SDS011;8204;53.582;10.080;2023-04-15T10:18:34;29.33;;;26.63;;
16193;SDS011;8204;53.582;10.080;2023-04-15T10:21:11;28.53;;;25.63;;
16193;SDS011;8204;53.582;10.080;2023-04-15T10:23:43;32.13;;;28.60;;
16193;SDS011;8204;53.582;10.080;2023-04-15T10:26:13;27.87;;;25.07;;
16193;SDS011;8204;53.582;10.080;2023-04-15T10:28:43;31.10;;;27.23;;
16193;SDS011;8204;53.582;10.080;2023-04-15T10:31:14;28.60;;;25.83;;
16193;SDS011;8204;53.582;10.080;2023-04-15T10:33:45;29.83;;;26.80;;
16193;SDS011;8204;53.582;10.080;2023-04-15T10:36:18;27.87;;;25.03;;
16193;SDS011;8204;53.582;10.080;2023-04-15T10:38:48;27.73;;;24.73;;
16193;SDS011;8204;53.582;10.080;2023-04-15T10:41:21;25.83;;;23.63;;
16193;SDS011;8204;53.582;10.080;2023-04-15T10:43:52;27.17;;;24.17;;
16193;SDS011;8204;53.582;10.080;2023-04-15T10:46:23;25.67;;;22.73;;
16193;SDS011;8204;53.582;10.080;2023-04-15T10:49:05;24.43;;;21.53;;
16193;SDS011;8204;53.582;10.080;2023-04-15T10:51:39;23.10;;;21.03;;
16193;SDS011;8204;53.582;10.080;2023-04-15T10:54:12;23.73;;;21.17;;
16193;SDS011;8204;53.582;10.080;2023-04-15T10:56:43;22.57;;;20.43;;
16193;SDS011;8204;53.582;10.080;2023-04-15T10:59:13;21.80;;;19.90;;
16193;SDS011;8204;53.582;10.080;2023-04-15T11:01:50;19.47;;;17.67;;
16193;SDS011;8204;53.582;10.080;2023-04-15T11:07:37;20.17;;;18.27;;
16193;SDS011;8204;53.582;10.080;2023-04-15T11:13:25;18.00;;;16.50;;
16193;SDS011;8204;53.582;10.080;2023-04-15T11:15:59;18.40;;;16.80;;
16193;SDS011;8204;53.582;10.080;2023-04-15T11:18:33;21.07;;;18.90;;
16193;SDS011;8204;53.582;10.080;2023-04-15T11:21:04;19.27;;;17.57;;
16193;SDS011;8204;53.582;10.080;2023-04-15T11:23:37;18.90;;;17.37;;
16193;SDS011;8204;53.582;10.080;2023-04-15T11:26:09;18.30;;;16.67;;
16193;SDS011;8204;53.582;10.080;2023-04-15T11:28:40;20.57;;;18.40;;
16193;SDS011;8204;53.582;10.080;2023-04-15T11:31:11;20.33;;;18.30;;
16193;SDS011;8204;53.582;10.080;2023-04-15T11:33:44;18.73;;;17.03;;
16193;SDS011;8204;53.582;10.080;2023-04-15T11:36:15;20.80;;;19.13;;
16193;SDS011;8204;53.582;10.080;2023-04-15T11:38:47;19.63;;;17.87;;
16193;SDS011;8204;53.582;10.080;2023-04-15T11:41:19;18.43;;;16.77;;
16193;SDS011;8204;53.582;10.080;2023-04-15T11:43:48;18.83;;;17.07;;
16193;SDS011;8204;53.582;10.080;2023-04-15T11:46:18;16.63;;;15.33;;
16193;SDS011;8204;53.582;10.080;2023-04-15T11:48:48;17.97;;;16.40;;
16193;SDS011;8204;53.582;10.080;2023-04-15T11:51:17;18.10;;;16.40;;
16193;SDS011;8204;53.582;10.080;2023-04-15T11:53:53;17.67;;;16.27;;
16193;SDS011;8204;53.582;10.080;2023-04-15T11:56:23;17.93;;;16.30;;
16193;SDS011;8204;53.582;10.080;2023-04-15T11:58:54;17.27;;;15.73;;
16193;SDS011;8204;53.582;10.080;2023-04-15T12:01:29;16.93;;;15.63;;
16193;SDS011;8204;53.582;10.080;2023-04-15T12:04:00;18.70;;;16.97;;
16193;SDS011;8204;53.582;10.080;2023-04-15T12:06:30;16.90;;;15.40;;
16193;SDS011;8204;53.582;10.080;2023-04-15T12:09:11;17.53;;;16.03;;
16193;SDS011;8204;53.582;10.080;2023-04-15T12:11:42;18.77;;;16.90;;
16193;SDS011;8204;53.582;10.080;2023-04-15T12:14:20;19.27;;;17.13;;
16193;SDS011;8204;53.582;10.080;2023-04-15T12:16:54;19.50;;;17.90;;
16193;SDS011;8204;53.582;10.080;2023-04-15T12:19:27;17.40;;;16.00;;
16193;SDS011;8204;53.582;10.080;2023-04-15T12:21:58;20.20;;;18.37;;
16193;SDS011;8204;53.582;10.080;2023-04-15T12:24:32;18.00;;;16.60;;
16193;SDS011;8204;53.582;10.080;2023-04-15T12:27:03;18.17;;;16.67;;
16193;SDS011;8204;53.582;10.080;2023-04-15T12:29:34;17.47;;;15.97;;
16193;SDS011;8204;53.582;10.080;2023-04-15T12:32:05;17.17;;;15.60;;
16193;SDS011;8204;53.582;10.080;2023-04-15T12:34:35;17.43;;;15.87;;
16193;SDS011;8204;53.582;10.080;2023-04-15T12:37:06;17.37;;;15.87;;
16193;SDS011;8204;53.582;10.080;2023-04-15T12:39:40;18.20;;;16.33;;
16193;SDS011;8204;53.582;10.080;2023-04-15T12:42:11;15.83;;;14.53;;
16193;SDS011;8204;53.582;10.080;2023-04-15T12:44:40;17.17;;;15.63;;
16193;SDS011;8204;53.582;10.080;2023-04-15T12:47:09;17.37;;;15.77;;
16193;SDS011;8204;53.582;10.080;2023-04-15T12:49:39;18.00;;;16.30;;
16193;SDS011;8204;53.582;10.080;2023-04-15T12:52:08;17.73;;;16.10;;
16193;SDS011;8204;53.582;10.080;2023-04-15T12:54:40;16.47;;;15.13;;
16193;SDS011;8204;53.582;10.080;2023-04-15T12:57:10;19.17;;;17.47;;
16193;SDS011;8204;53.582;10.080;2023-04-15T12:59:39;17.10;;;15.57;;
16193;SDS011;8204;53.582;10.080;2023-04-15T13:02:08;20.20;;;18.43;;
16193;SDS011;8204;53.582;10.080;2023-04-15T13:04:37;18.73;;;17.03;;
16193;SDS011;8204;53.582;10.080;2023-04-15T13:07:07;17.77;;;16.17;;
16193;SDS011;8204;53.582;10.080;2023-04-15T13:09:41;17.57;;;15.97;;
16193;SDS011;8204;53.582;10.080;2023-04-15T13:12:10;17.03;;;15.43;;
16193;SDS011;8204;53.582;10.080;2023-04-15T13:14:39;16.87;;;15.37;;
16193;SDS011;8204;53.582;10.080;2023-04-15T13:17:09;18.27;;;16.67;;
16193;SDS011;8204;53.582;10.080;2023-04-15T13:19:38;18.07;;;16.33;;
16193;SDS011;8204;53.582;10.080;2023-04-15T13:22:07;16.73;;;15.33;;
16193;SDS011;8204;53.582;10.080;2023-04-15T13:24:36;17.83;;;16.20;;
16193;SDS011;8204;53.582;10.080;2023-04-15T13:27:08;17.53;;;16.00;;
16193;SDS011;8204;53.582;10.080;2023-04-15T13:29:37;16.97;;;15.43;;
16193;SDS011;8204;53.582;10.080;2023-04-15T13:32:05;21.43;;;15.07;;
16193;SDS011;8204;53.582;10.080;2023-04-15T13:34:36;16.87;;;15.37;;
16193;SDS011;8204;53.582;10.080;2023-04-15T13:37:05;15.53;;;13.87;;
16193;SDS011;8204;53.582;10.080;2023-04-15T13:39:34;16.60;;;15.10;;
16193;SDS011;8204;53.582;10.080;2023-04-15T13:42:03;15.87;;;14.37;;
16193;SDS011;8204;53.582;10.080;2023-04-15T13:44:34;17.23;;;15.67;;
16193;SDS011;8204;53.582;10.080;2023-04-15T13:47:03;15.13;;;13.63;;
16193;SDS011;8204;53.582;10.080;2023-04-15T13:49:33;16.30;;;14.90;;
16193;SDS011;8204;53.582;10.080;2023-04-15T13:52:02;15.40;;;14.00;;
16193;SDS011;8204;53.582;10.080;2023-04-15T13:54:31;14.73;;;13.43;;
16193;SDS011;8204;53.582;10.080;2023-04-15T13:57:03;14.47;;;13.27;;
16193;SDS011;8204;53.582;10.080;2023-04-15T13:59:35;14.20;;;13.17;;
16193;SDS011;8204;53.582;10.080;2023-04-15T14:02:04;15.17;;;13.73;;
16193;SDS011;8204;53.582;10.080;2023-04-15T14:04:33;15.03;;;13.73;;
16193;SDS011;8204;53.582;10.080;2023-04-15T14:07:02;13.33;;;12.23;;
16193;SDS011;8204;53.582;10.080;2023-04-15T14:09:31;14.30;;;13.10;;
16193;SDS011;8204;53.582;10.080;2023-04-15T14:12:00;14.40;;;13.30;;
16193;SDS011;8204;53.582;10.080;2023-04-15T14:14:29;14.30;;;13.17;;
16193;SDS011;8204;53.582;10.080;2023-04-15T14:17:01;13.80;;;12.50;;
16193;SDS011;8204;53.582;10.080;2023-04-15T14:19:33;14.00;;;12.80;;
16193;SDS011;8204;53.582;10.080;2023-04-15T14:22:10;14.27;;;13.07;;
16193;SDS011;8204;53.582;10.080;2023-04-15T14:24:39;15.10;;;13.60;;
16193;SDS011;8204;53.582;10.080;2023-04-15T14:27:08;14.60;;;13.20;;
16193;SDS011;8204;53.582;10.080;2023-04-15T14:29:38;12.37;;;11.37;;
16193;SDS011;8204;53.582;10.080;2023-04-15T14:32:10;15.43;;;14.13;;
16193;SDS011;8204;53.582;10.080;2023-04-15T14:34:40;13.27;;;12.17;;
16193;SDS011;8204;53.582;10.080;2023-04-15T14:37:09;12.60;;;11.50;;
16193;SDS011;8204;53.582;10.080;2023-04-15T14:39:38;12.73;;;11.73;;
16193;SDS011;8204;53.582;10.080;2023-04-15T14:42:07;14.33;;;13.03;;
16193;SDS011;8204;53.582;10.080;2023-04-15T14:44:36;12.20;;;11.20;;
16193;SDS011;8204;53.582;10.080;2023-04-15T14:47:06;13.23;;;12.10;;
16193;SDS011;8204;53.582;10.080;2023-04-15T14:49:38;13.87;;;12.70;;